createdAt,value
2023-10-12T00:02:05.266Z,56.89
2023-10-12T00:04:54.094Z,57.29
2023-10-12T00:07:43.774Z,57.47
2023-10-12T00:10:41.411Z,58.01
2023-10-12T00:13:29.754Z,57.39
2023-10-12T00:16:19.927Z,57.38
2023-10-12T00:19:12.710Z,57.44
2023-10-12T00:22:00.821Z,57.35
2023-10-12T00:24:46.782Z,57.90
2023-10-12T00:27:34.832Z,58.27
2023-10-12T00:30:21.486Z,58.91
2023-10-12T00:33:09.497Z,59.22
2023-10-12T00:36:20.496Z,59.09
2023-10-12T00:39:10.021Z,59.23
2023-10-12T00:41:57.149Z,59.23
2023-10-12T00:44:43.130Z,59.17
2023-10-12T00:47:49.083Z,59.13
2023-10-12T00:50:38.062Z,58.04
2023-10-12T00:53:31.865Z,57.87
2023-10-12T00:56:19.102Z,57.51
2023-10-12T00:59:04.694Z,57.40
2023-10-12T01:01:50.628Z,56.80
2023-10-12T01:04:37.818Z,56.91
2023-10-12T01:07:26.618Z,56.99
2023-10-12T01:10:17.972Z,58.03
2023-10-12T01:13:04.239Z,57.87
2023-10-12T01:15:51.994Z,57.78
2023-10-12T01:18:38.931Z,58.01
2023-10-12T01:21:24.565Z,58.50
2023-10-12T01:24:13.305Z,59.12
2023-10-12T01:27:00.000Z,58.86
2023-10-12T01:29:46.837Z,59.13
2023-10-12T01:32:39.246Z,58.99
2023-10-12T01:35:34.539Z,58.82
2023-10-12T01:38:22.671Z,59.01
2023-10-12T01:41:10.560Z,58.92
2023-10-12T01:43:57.831Z,59.03
2023-10-12T01:46:43.659Z,59.14
2023-10-12T01:49:31.217Z,59.06
2023-10-12T01:52:21.355Z,58.92
2023-10-12T01:55:17.046Z,58.48
2023-10-12T01:58:05.627Z,58.87
2023-10-12T02:00:54.483Z,59.11
2023-10-12T02:03:45.894Z,59.13
2023-10-12T02:06:32.629Z,59.09
2023-10-12T02:09:23.059Z,59.15
2023-10-12T02:12:14.329Z,59.30
2023-10-12T02:15:02.259Z,59.41
2023-10-12T02:17:51.899Z,59.57
2023-10-12T02:20:42.919Z,59.71
2023-10-12T02:23:37.388Z,60.03
2023-10-12T02:26:52.420Z,60.08
2023-10-12T02:29:38.219Z,60.05
2023-10-12T02:32:26.319Z,60.42
2023-10-12T02:35:13.120Z,60.55
2023-10-12T02:37:59.452Z,60.46
2023-10-12T02:40:45.886Z,60.56
2023-10-12T02:43:33.599Z,60.64
2023-10-12T02:46:23.572Z,60.39
2023-10-12T02:49:09.292Z,60.44
2023-10-12T02:51:55.052Z,60.54
2023-10-12T02:54:51.466Z,60.73
2023-10-12T02:57:38.677Z,60.55
2023-10-12T03:00:38.839Z,60.39
2023-10-12T03:03:38.055Z,60.97
2023-10-12T03:06:30.613Z,60.88
2023-10-12T03:09:17.875Z,60.96
2023-10-12T03:12:04.185Z,61.09
2023-10-12T03:14:53.553Z,61.44
2023-10-12T03:17:46.524Z,61.74
2023-10-12T03:20:35.957Z,61.83
2023-10-12T03:23:21.250Z,62.13
2023-10-12T03:26:25.247Z,62.71
2023-10-12T03:29:19.200Z,62.39
2023-10-12T03:32:05.689Z,62.25
2023-10-12T03:34:54.354Z,62.37
2023-10-12T03:37:46.029Z,62.51
2023-10-12T03:40:51.330Z,62.21
2023-10-12T03:43:40.561Z,61.92
2023-10-12T03:46:29.215Z,62.06
2023-10-12T03:49:32.654Z,62.07
2023-10-12T03:52:19.907Z,61.77
2023-10-12T03:55:08.161Z,61.82
2023-10-12T03:58:01.363Z,61.56
2023-10-12T04:01:14.590Z,61.83
2023-10-12T04:04:10.249Z,62.25
2023-10-12T04:07:01.938Z,62.53
2023-10-12T04:09:54.661Z,63.11
2023-10-12T04:13:07.960Z,62.60
2023-10-12T04:16:28.133Z,62.02
2023-10-12T04:19:23.360Z,61.62
2023-10-12T04:22:26.066Z,61.78
2023-10-12T04:25:22.869Z,61.31
2023-10-12T04:28:19.679Z,61.43
2023-10-12T04:31:08.828Z,61.27
2023-10-12T04:33:57.196Z,61.24
2023-10-12T04:36:44.404Z,61.48
2023-10-12T04:39:38.621Z,61.83
2023-10-12T04:42:34.449Z,62.53
2023-10-12T04:45:19.946Z,62.66
2023-10-12T04:48:18.931Z,63.38
2023-10-12T04:54:58.298Z,63.12
2023-10-12T04:57:48.102Z,62.44
2023-10-12T05:00:48.500Z,62.09
2023-10-12T05:03:36.006Z,61.69
2023-10-12T05:06:24.902Z,61.32
2023-10-12T05:09:13.858Z,61.31
2023-10-12T05:11:59.603Z,61.25
2023-10-12T05:14:47.578Z,61.84
2023-10-12T05:17:33.326Z,61.83
2023-10-12T05:20:24.002Z,61.65
2023-10-12T05:23:12.070Z,61.66
2023-10-12T05:25:57.950Z,62.19
2023-10-12T05:28:58.951Z,62.47
2023-10-12T05:31:50.296Z,62.54
2023-10-12T05:34:39.790Z,62.80
2023-10-12T05:37:27.484Z,62.54
2023-10-12T05:40:17.640Z,62.52
2023-10-12T05:43:16.672Z,62.34
2023-10-12T05:46:05.390Z,62.67
2023-10-12T05:48:52.890Z,62.38
2023-10-12T05:51:38.528Z,62.29
2023-10-12T05:54:24.818Z,62.67
2023-10-12T05:57:20.140Z,62.94
2023-10-12T06:00:11.745Z,63.63
2023-10-12T06:02:59.174Z,63.56
2023-10-12T06:05:45.351Z,63.65
2023-10-12T06:08:35.654Z,63.66
2023-10-12T06:11:27.351Z,63.42
2023-10-12T06:14:20.961Z,63.04
2023-10-12T06:17:07.573Z,62.57
2023-10-12T06:19:55.591Z,62.40
2023-10-12T06:22:41.413Z,62.11
2023-10-12T06:25:29.397Z,61.93
2023-10-12T06:28:17.633Z,61.46
2023-10-12T06:31:06.534Z,61.52
2023-10-12T06:33:55.961Z,61.05
2023-10-12T06:36:41.874Z,60.50
2023-10-12T06:39:27.593Z,60.25
2023-10-12T06:42:27.341Z,60.39
2023-10-12T06:45:16.722Z,60.18
2023-10-12T06:48:22.294Z,59.88
2023-10-12T06:51:11.555Z,59.71
2023-10-12T06:54:18.198Z,59.77
2023-10-12T06:57:17.824Z,59.93
2023-10-12T07:00:07.412Z,59.65
2023-10-12T07:02:53.189Z,59.57
2023-10-12T07:05:39.089Z,59.75
2023-10-12T07:08:27.959Z,59.82
2023-10-12T07:11:15.425Z,59.46
2023-10-12T07:14:05.654Z,59.66
2023-10-12T07:16:55.667Z,59.08
2023-10-12T07:19:43.066Z,59.20
2023-10-12T07:22:36.946Z,59.11
2023-10-12T07:25:27.440Z,58.49
2023-10-12T07:28:23.076Z,58.23
2023-10-12T07:31:18.038Z,57.74
2023-10-12T07:34:08.791Z,57.28
2023-10-12T07:36:58.559Z,56.95
2023-10-12T07:39:46.378Z,56.75
2023-10-12T07:42:35.237Z,56.08
2023-10-12T07:45:20.852Z,55.44
2023-10-12T07:48:20.665Z,55.19
2023-10-12T07:51:27.112Z,55.14
2023-10-12T07:54:32.751Z,54.87
2023-10-12T07:57:23.097Z,54.74
2023-10-12T08:00:10.382Z,54.74
2023-10-12T08:03:06.153Z,54.37
2023-10-12T08:05:58.161Z,54.16
2023-10-12T08:08:46.254Z,53.73
2023-10-12T08:11:35.700Z,53.72
2023-10-12T08:14:24.390Z,53.64
2023-10-12T08:17:26.414Z,53.66
2023-10-12T08:20:31.276Z,53.50
2023-10-12T08:23:19.355Z,52.98
2023-10-12T08:26:11.011Z,52.45
2023-10-12T08:28:58.921Z,52.09
2023-10-12T08:31:45.223Z,51.27
2023-10-12T08:34:34.121Z,50.50
2023-10-12T08:37:25.417Z,50.34
2023-10-12T08:40:19.914Z,50.12
2023-10-12T08:43:10.140Z,50.04
2023-10-12T08:45:56.309Z,49.72
2023-10-12T08:48:54.327Z,49.33
2023-10-12T08:52:00.818Z,49.53
2023-10-12T08:54:59.127Z,48.61
2023-10-12T08:58:34.090Z,48.14
2023-10-12T09:01:32.341Z,47.99
2023-10-12T09:04:22.838Z,47.48
2023-10-12T09:07:14.130Z,47.21
2023-10-12T09:10:03.851Z,47.76
2023-10-12T09:12:49.635Z,48.03
2023-10-12T09:15:46.506Z,48.16
2023-10-12T09:18:54.194Z,48.46
2023-10-12T09:21:40.067Z,48.19
2023-10-12T09:24:29.043Z,47.69
2023-10-12T09:27:16.383Z,47.57
2023-10-12T09:30:07.423Z,46.17
2023-10-12T09:33:35.339Z,45.47
2023-10-12T09:36:23.855Z,45.35
2023-10-12T09:39:12.794Z,45.36
2023-10-12T09:42:23.276Z,44.75
2023-10-12T09:45:25.633Z,44.31
2023-10-12T09:48:28.000Z,44.44
2023-10-12T09:51:18.302Z,44.09
2023-10-12T09:54:16.437Z,44.61
2023-10-12T09:57:15.739Z,44.67
2023-10-12T10:00:20.529Z,44.06
2023-10-12T10:03:09.696Z,43.57
2023-10-12T10:06:05.053Z,43.34
2023-10-12T10:09:10.092Z,43.48
2023-10-12T10:12:00.364Z,43.86
2023-10-12T10:14:48.022Z,43.78
2023-10-12T10:17:37.395Z,43.60
2023-10-12T10:20:25.788Z,43.86
2023-10-12T10:23:14.635Z,44.33
2023-10-12T10:26:20.731Z,43.78
2023-10-12T10:29:17.954Z,44.58
2023-10-12T10:32:04.144Z,45.13
2023-10-12T10:35:01.724Z,44.89
2023-10-12T10:37:58.366Z,44.80
2023-10-12T10:40:48.560Z,44.64
2023-10-12T10:43:40.731Z,44.73
2023-10-12T10:46:27.532Z,44.49
2023-10-12T10:49:33.004Z,44.19
2023-10-12T10:52:27.327Z,44.26
2023-10-12T10:55:22.410Z,43.70
2023-10-12T10:58:08.551Z,43.75
2023-10-12T11:00:58.387Z,43.70
2023-10-12T11:03:47.231Z,43.48
2023-10-12T11:06:37.777Z,43.67
2023-10-12T11:09:32.563Z,43.79
2023-10-12T11:12:21.138Z,44.19
2023-10-12T11:15:11.855Z,44.03
2023-10-12T11:17:58.388Z,43.72
2023-10-12T11:21:16.441Z,43.68
2023-10-12T11:24:11.704Z,43.44
2023-10-12T11:26:58.261Z,43.28
2023-10-12T11:29:53.295Z,42.82
2023-10-12T11:33:01.558Z,42.29
2023-10-12T11:35:47.869Z,41.62
2023-10-12T11:38:34.028Z,41.76
2023-10-12T11:41:21.145Z,40.83
2023-10-12T11:44:09.538Z,40.76
2023-10-12T11:47:00.013Z,40.44
2023-10-12T11:49:56.633Z,40.34
2023-10-12T11:52:50.889Z,40.05
2023-10-12T11:55:40.742Z,39.69
2023-10-12T11:58:30.086Z,39.05
2023-10-12T12:01:19.016Z,38.93
2023-10-12T12:04:11.362Z,38.80
2023-10-12T12:06:57.853Z,38.19
2023-10-12T12:13:17.538Z,38.59
2023-10-12T12:16:09.487Z,38.00
2023-10-12T12:18:56.061Z,37.51
2023-10-12T12:21:42.987Z,36.94
2023-10-12T12:24:30.029Z,36.68
2023-10-12T12:27:34.676Z,36.44
2023-10-12T12:33:23.763Z,37.08
2023-10-12T12:36:21.989Z,37.78
2023-10-12T12:39:10.771Z,38.69
2023-10-12T12:41:56.240Z,39.03
2023-10-12T12:44:43.056Z,38.77
2023-10-12T12:47:33.386Z,38.44
2023-10-12T12:50:19.086Z,38.27
2023-10-12T12:53:07.138Z,37.13
2023-10-12T12:56:06.051Z,36.79
2023-10-12T12:59:08.345Z,36.55
2023-10-12T13:01:55.065Z,35.65
2023-10-12T13:04:42.845Z,35.20
2023-10-12T13:07:29.027Z,34.78
2023-10-12T13:10:15.379Z,34.78
2023-10-12T13:13:05.014Z,34.03
2023-10-12T13:15:52.095Z,34.21
2023-10-12T13:18:39.143Z,33.95
2023-10-12T13:21:25.245Z,33.97
2023-10-12T13:24:15.501Z,33.59
2023-10-12T13:27:09.303Z,33.17
2023-10-12T13:30:10.234Z,33.13
2023-10-12T13:33:00.474Z,33.55
2023-10-12T13:35:47.898Z,34.02
2023-10-12T13:38:42.996Z,34.04
2023-10-12T13:41:30.906Z,34.20
2023-10-12T13:44:20.390Z,34.12
2023-10-12T13:47:07.942Z,33.55
2023-10-12T13:49:54.720Z,33.51
2023-10-12T13:52:41.238Z,33.86
2023-10-12T13:55:29.637Z,33.66
2023-10-12T13:58:16.360Z,33.65
2023-10-12T14:01:04.832Z,33.67
2023-10-12T14:03:56.936Z,33.88
2023-10-12T14:06:44.839Z,33.93
2023-10-12T14:09:33.946Z,33.12
2023-10-12T14:12:20.588Z,32.84
2023-10-12T14:15:08.171Z,32.90
2023-10-12T14:17:57.462Z,33.25
2023-10-12T14:20:45.000Z,32.62
2023-10-12T14:23:39.655Z,32.92
2023-10-12T14:26:26.866Z,33.00
2023-10-12T14:29:14.012Z,33.40
2023-10-12T14:32:03.038Z,33.87
2023-10-12T14:34:48.904Z,34.18
2023-10-12T14:37:37.708Z,34.12
2023-10-12T14:40:30.488Z,34.56
2023-10-12T14:43:16.521Z,34.89
2023-10-12T14:46:05.381Z,35.29
2023-10-12T14:48:52.054Z,35.81
2023-10-12T14:52:03.988Z,36.41
2023-10-12T14:54:49.923Z,38.09
2023-10-12T14:57:51.783Z,40.14
2023-10-12T15:00:52.082Z,42.02
2023-10-12T15:03:45.849Z,43.32
2023-10-12T15:06:37.714Z,45.25
2023-10-12T15:09:34.326Z,46.47
2023-10-12T15:12:27.128Z,46.99
2023-10-12T15:15:42.103Z,47.60
2023-10-12T15:18:27.673Z,49.25
2023-10-12T15:24:03.972Z,50.56
2023-10-12T15:26:49.753Z,51.41
2023-10-12T15:33:13.440Z,52.00
2023-10-12T15:36:01.126Z,53.12
2023-10-12T15:38:46.589Z,53.84
2023-10-12T15:41:34.274Z,54.48
2023-10-12T15:48:28.345Z,55.58
2023-10-12T15:51:22.097Z,55.52
2023-10-12T15:54:12.311Z,55.73
2023-10-12T15:56:59.542Z,56.22
2023-10-12T15:59:45.579Z,56.50
2023-10-12T16:02:32.749Z,56.87
2023-10-12T16:05:19.079Z,57.11
2023-10-12T16:08:23.006Z,57.52
2023-10-12T16:11:21.694Z,57.52
2023-10-12T16:14:24.749Z,57.14
2023-10-12T16:17:15.399Z,56.83
2023-10-12T16:20:27.725Z,57.09
2023-10-12T16:23:13.310Z,57.28
2023-10-12T16:26:49.590Z,57.33
2023-10-12T16:34:44.324Z,58.10
2023-10-12T16:37:31.786Z,58.39
2023-10-12T16:40:43.424Z,58.11
2023-10-12T16:43:53.333Z,58.47
2023-10-12T16:46:56.071Z,58.70
2023-10-12T16:49:42.799Z,58.33
2023-10-12T16:52:35.251Z,57.99
2023-10-12T17:02:55.297Z,57.97
2023-10-12T17:06:22.680Z,58.19
2023-10-12T17:09:10.437Z,58.50
2023-10-12T17:11:58.147Z,58.29
2023-10-12T17:14:44.179Z,58.22
2023-10-12T17:17:29.947Z,57.73
2023-10-12T17:20:16.596Z,57.21
2023-10-12T17:23:02.190Z,57.15
2023-10-12T17:25:48.158Z,57.01
2023-10-12T17:28:35.695Z,57.46
2023-10-12T17:31:29.632Z,57.59
2023-10-12T17:34:18.392Z,57.75
2023-10-12T17:37:06.534Z,57.57
2023-10-12T17:39:55.928Z,57.68
2023-10-12T17:42:43.492Z,57.79
2023-10-12T17:45:36.391Z,58.02
2023-10-12T17:48:23.738Z,58.49
2023-10-12T17:54:34.795Z,59.03
2023-10-12T17:57:37.498Z,58.83
2023-10-12T18:04:37.666Z,59.21
2023-10-12T18:14:27.193Z,60.23
2023-10-12T18:17:18.971Z,60.24
2023-10-12T18:20:11.237Z,59.61
2023-10-12T18:23:03.031Z,60.05
2023-10-12T18:33:19.290Z,60.79
2023-10-12T18:39:20.328Z,60.94
2023-10-12T18:43:18.433Z,61.13
2023-10-12T18:47:00.614Z,61.38
2023-10-12T18:57:43.324Z,61.76
2023-10-12T19:00:33.704Z,61.60
2023-10-12T19:03:23.383Z,61.24
2023-10-12T19:09:34.721Z,61.02
2023-10-12T19:12:20.386Z,61.35
2023-10-12T19:15:06.584Z,61.37
2023-10-12T19:17:53.550Z,60.99
2023-10-12T19:20:43.673Z,61.54
2023-10-12T19:23:29.711Z,61.46
2023-10-12T19:26:16.481Z,61.78
2023-10-12T19:29:04.293Z,61.84
2023-10-12T19:31:52.593Z,61.68
2023-10-12T19:34:38.160Z,62.05
2023-10-12T19:37:24.209Z,62.04
2023-10-12T19:40:16.620Z,62.04
2023-10-12T19:43:02.158Z,62.40
2023-10-12T19:45:49.090Z,62.36
2023-10-12T19:48:35.630Z,62.54
2023-10-12T19:51:22.084Z,62.63
2023-10-12T19:54:08.460Z,62.60
2023-10-12T19:56:54.999Z,62.54
2023-10-12T19:59:40.468Z,62.43
2023-10-12T20:02:28.222Z,62.26
2023-10-12T20:05:16.747Z,62.26
2023-10-12T20:08:05.094Z,62.71
2023-10-12T20:10:54.180Z,62.65
2023-10-12T20:13:40.377Z,62.71
2023-10-12T20:16:27.079Z,62.93
2023-10-12T20:19:12.994Z,62.96
2023-10-12T20:21:59.198Z,62.98
2023-10-12T20:24:44.749Z,63.30
2023-10-12T20:27:34.672Z,63.13
2023-10-12T20:30:21.511Z,63.52
2023-10-12T20:33:07.748Z,63.16
2023-10-12T20:35:58.080Z,63.53
2023-10-12T20:38:46.564Z,63.46
2023-10-12T20:41:32.415Z,63.61
2023-10-12T20:44:20.306Z,63.33
2023-10-12T20:47:05.952Z,63.16
2023-10-12T20:49:51.992Z,62.98
2023-10-12T20:52:39.052Z,62.77
2023-10-12T20:55:28.853Z,62.81
2023-10-12T20:58:24.367Z,62.80
2023-10-12T21:01:27.562Z,62.75
2023-10-12T21:04:21.563Z,62.71
2023-10-12T21:07:11.243Z,62.76
2023-10-12T21:10:02.974Z,62.77
2023-10-12T21:12:48.981Z,62.95
2023-10-12T21:15:34.740Z,62.99
2023-10-12T21:18:34.628Z,63.17
2023-10-12T21:21:22.960Z,63.25
2023-10-12T21:24:18.726Z,63.54
2023-10-12T21:27:07.831Z,64.31
2023-10-12T21:29:54.418Z,64.13
2023-10-12T21:32:41.223Z,64.20
2023-10-12T21:35:27.617Z,64.31
2023-10-12T21:38:14.650Z,64.60
2023-10-12T21:41:06.324Z,64.46
2023-10-12T21:43:51.724Z,64.26
2023-10-12T21:46:43.576Z,64.40
2023-10-12T21:49:32.953Z,64.36
2023-10-12T21:52:18.989Z,64.30
2023-10-12T21:55:07.053Z,64.36
2023-10-12T21:57:52.775Z,64.31
2023-10-12T22:00:38.408Z,64.40
2023-10-12T22:03:25.467Z,64.63
2023-10-12T22:06:16.229Z,64.78
2023-10-12T22:09:04.659Z,64.77
2023-10-12T22:11:50.711Z,65.03
2023-10-12T22:15:02.813Z,65.66
2023-10-12T22:18:01.091Z,66.05
2023-10-12T22:20:47.054Z,65.89
2023-10-12T22:23:32.381Z,66.02
2023-10-12T22:26:18.980Z,65.98
2023-10-12T22:29:04.644Z,66.15
2023-10-12T22:31:50.565Z,66.39
2023-10-12T22:34:36.282Z,66.06
2023-10-12T22:37:22.515Z,66.31
2023-10-12T22:40:14.910Z,66.31
2023-10-12T22:43:00.447Z,66.39
2023-10-12T22:45:46.224Z,66.61
2023-10-12T22:48:32.282Z,66.73
2023-10-12T22:51:22.647Z,66.81
2023-10-12T22:54:07.958Z,66.64
2023-10-12T22:56:54.118Z,66.56
2023-10-12T22:59:39.576Z,66.65
2023-10-12T23:02:25.691Z,66.52
2023-10-12T23:05:15.347Z,66.79
2023-10-12T23:08:02.150Z,67.02
2023-10-12T23:10:48.218Z,67.06
2023-10-12T23:13:34.000Z,67.10
2023-10-12T23:16:46.680Z,67.34
2023-10-12T23:19:38.810Z,67.40
2023-10-12T23:22:24.421Z,67.67
2023-10-12T23:25:11.027Z,67.95
2023-10-12T23:28:00.461Z,68.08
2023-10-12T23:31:04.839Z,67.92
2023-10-12T23:33:54.680Z,68.09
2023-10-12T23:36:40.564Z,67.99
2023-10-12T23:39:36.641Z,67.81
2023-10-12T23:42:23.520Z,67.62
2023-10-12T23:45:19.072Z,67.56
2023-10-12T23:48:12.866Z,67.68
2023-10-12T23:51:13.746Z,67.68
2023-10-12T23:54:29.990Z,67.98
2023-10-12T23:57:16.527Z,67.96
